Aurora, Iowa
Current Conditions -  °F | °C
As of 2:35 AM on Saturday 25 Oct 2014 (Local Time) from KOLZ Reporting Station
Moderate Fog Moderate Fog  
Wind Chill: 11°   Ceiling: 100
Heat Index: 11°   Visibility: 0mi
Dew Point: 11°   Wind: 5mph
Humidity: 100%   Direction: 240°WSW
Pressure: 29.96"   Gusts: NA
Location:  42.62°N, 91.73°W
Report Text: KOLZ 250735Z AUTO 24004KT M1/4SM FG OVC001 11/11 A2996 RMK AO2
Loading
Personal Weather Stations






























Interactive Weather Map
Tropical Storm Tracking
New forecast layout! Learn more

10-Day Weather Forecast

Advertisements
Track Severe Weather on mobile